createdAt,value
2022-09-03T00:03:24.530Z,64
2022-09-03T00:08:25.248Z,64
2022-09-03T00:13:24.310Z,64
2022-09-03T00:18:24.888Z,65
2022-09-03T00:23:24.092Z,65
2022-09-03T00:28:24.576Z,66
2022-09-03T00:33:24.807Z,66
2022-09-03T00:38:25.980Z,67
2022-09-03T00:43:24.543Z,67
2022-09-03T00:48:28.793Z,67
2022-09-03T00:53:24.205Z,67
2022-09-03T00:58:24.804Z,67
2022-09-03T01:03:24.166Z,67
2022-09-03T01:08:24.979Z,68
2022-09-03T01:13:24.103Z,68
2022-09-03T01:18:24.968Z,68
2022-09-03T01:23:24.149Z,68
2022-09-03T01:28:24.646Z,68
2022-09-03T01:33:24.079Z,68
2022-09-03T01:38:24.670Z,68
2022-09-03T01:43:24.876Z,68
2022-09-03T01:48:25.225Z,69
2022-09-03T01:53:24.262Z,69
2022-09-03T01:58:25.016Z,69
2022-09-03T02:03:24.747Z,69
2022-09-03T02:08:26.112Z,70
2022-09-03T02:13:24.442Z,70
2022-09-03T02:18:25.003Z,71
2022-09-03T02:23:28.497Z,71
2022-09-03T02:28:25.081Z,71
2022-09-03T02:33:29.175Z,71
2022-09-03T02:38:24.478Z,71
2022-09-03T02:43:26.248Z,71
2022-09-03T02:48:25.023Z,71
2022-09-03T02:53:24.436Z,71
2022-09-03T02:58:25.281Z,71
2022-09-03T03:03:24.388Z,71
2022-09-03T03:08:24.399Z,72
2022-09-03T03:13:24.778Z,72
2022-09-03T03:18:25.528Z,72
2022-09-03T03:23:24.736Z,72
2022-09-03T03:28:25.288Z,74
2022-09-03T03:33:24.601Z,74
2022-09-03T03:38:25.127Z,75
2022-09-03T03:43:24.886Z,75
2022-09-03T03:48:24.940Z,76
2022-09-03T03:53:24.539Z,76
2022-09-03T03:58:25.261Z,78
2022-09-03T04:03:25.103Z,78
2022-09-03T04:08:24.393Z,79
2022-09-03T04:13:25.065Z,79
2022-09-03T04:18:24.573Z,79
2022-09-03T04:23:25.028Z,79
2022-09-03T04:28:25.529Z,80
2022-09-03T04:33:24.355Z,80
2022-09-03T04:38:24.940Z,79
2022-09-03T04:43:24.385Z,79
2022-09-03T04:48:24.862Z,78
2022-09-03T04:53:24.213Z,78
2022-09-03T04:58:24.529Z,78
2022-09-03T05:03:25.056Z,78
2022-09-03T05:08:24.821Z,79
2022-09-03T05:13:24.200Z,79
2022-09-03T05:18:24.845Z,77
2022-09-03T05:23:24.166Z,77
2022-09-03T05:28:24.616Z,74
2022-09-03T05:33:24.916Z,74
2022-09-03T05:38:25.268Z,72
2022-09-03T05:43:25.137Z,72
2022-09-03T05:48:24.599Z,71
2022-09-03T05:53:25.221Z,71
2022-09-03T05:58:24.537Z,69
2022-09-03T06:03:25.792Z,69
2022-09-03T06:08:25.012Z,68
2022-09-03T06:13:24.764Z,68
2022-09-03T06:18:25.409Z,66
2022-09-03T06:23:24.667Z,66
2022-09-03T06:28:26.938Z,66
2022-09-03T06:33:25.385Z,66
2022-09-03T06:38:24.806Z,65
2022-09-03T06:43:25.123Z,65
2022-09-03T06:48:25.479Z,64
2022-09-03T06:53:32.295Z,64
2022-09-03T06:58:25.079Z,63
2022-09-03T07:03:24.580Z,63
2022-09-03T07:08:25.071Z,63
2022-09-03T07:13:24.300Z,63
2022-09-03T07:18:24.798Z,62
2022-09-03T07:23:25.198Z,62
2022-09-03T07:28:24.762Z,61
2022-09-03T07:33:24.449Z,61
2022-09-03T07:38:24.747Z,60
2022-09-03T07:43:24.769Z,60
2022-09-03T07:48:25.403Z,59
2022-09-03T07:53:24.640Z,59
2022-09-03T07:58:24.886Z,59
2022-09-03T08:03:25.427Z,59
2022-09-03T08:08:31.371Z,58
2022-09-03T08:13:27.141Z,58
2022-09-03T08:18:25.327Z,57
2022-09-03T08:23:24.789Z,57
2022-09-03T08:28:25.259Z,56
2022-09-03T08:33:25.786Z,56
2022-09-03T08:38:25.378Z,56
2022-09-03T08:43:24.285Z,56
2022-09-03T08:48:26.255Z,55
2022-09-03T08:53:24.732Z,55
2022-09-03T08:58:25.071Z,53
2022-09-03T09:03:24.865Z,53
2022-09-03T09:08:25.586Z,51
2022-09-03T09:13:24.807Z,51
2022-09-03T09:18:25.362Z,51
2022-09-03T09:23:26.183Z,51
2022-09-03T09:28:24.642Z,50
2022-09-03T09:33:25.141Z,50
2022-09-03T09:38:24.817Z,50
2022-09-03T09:43:25.379Z,50
2022-09-03T09:48:24.713Z,49
2022-09-03T09:53:25.213Z,49
2022-09-03T09:58:24.559Z,48
2022-09-03T10:03:24.981Z,48
2022-09-03T10:08:25.494Z,49
2022-09-03T10:13:24.764Z,49
2022-09-03T10:18:26.443Z,48
2022-09-03T10:23:24.545Z,48
2022-09-03T10:28:25.293Z,46
2022-09-03T10:33:24.564Z,46
2022-09-03T10:38:25.070Z,43
2022-09-03T10:43:25.198Z,43
2022-09-03T10:48:25.711Z,44
2022-09-03T10:53:24.924Z,44
2022-09-03T10:58:24.876Z,43
2022-09-03T11:03:25.589Z,43
2022-09-03T11:08:25.134Z,40
2022-09-03T11:13:24.434Z,40
2022-09-03T11:18:24.717Z,42
2022-09-03T11:23:25.060Z,42
2022-09-03T11:28:25.668Z,42
2022-09-03T11:33:25.029Z,42
2022-09-03T11:38:25.395Z,42
2022-09-03T11:43:24.805Z,42
2022-09-03T11:48:25.150Z,41
2022-09-03T11:53:25.825Z,41
2022-09-03T11:58:24.789Z,41
2022-09-03T12:03:25.289Z,41
2022-09-03T12:08:24.378Z,40
2022-09-03T12:13:24.918Z,40
2022-09-03T12:18:25.012Z,39
2022-09-03T12:23:24.760Z,39
2022-09-03T12:28:25.016Z,39
2022-09-03T12:33:25.658Z,39
2022-09-03T12:38:24.898Z,40
2022-09-03T12:43:44.103Z,40
2022-09-03T12:48:24.905Z,41
2022-09-03T12:53:25.718Z,41
2022-09-03T12:58:24.986Z,40
2022-09-03T13:03:25.612Z,40
2022-09-03T13:08:24.791Z,39
2022-09-03T13:13:24.862Z,39
2022-09-03T13:18:24.982Z,39
2022-09-03T13:23:25.764Z,39
2022-09-03T13:28:24.895Z,38
2022-09-03T13:33:29.633Z,38
2022-09-03T13:38:24.904Z,38
2022-09-03T13:43:25.991Z,38
2022-09-03T13:48:25.460Z,37
2022-09-03T13:53:26.471Z,37
2022-09-03T13:58:27.834Z,37
2022-09-03T14:03:25.368Z,37
2022-09-03T14:08:24.515Z,37
2022-09-03T14:13:25.052Z,37
2022-09-03T14:18:25.254Z,37
2022-09-03T14:23:25.876Z,37
2022-09-03T14:28:25.056Z,37
2022-09-03T14:33:25.836Z,37
2022-09-03T14:38:26.178Z,38
2022-09-03T14:43:25.541Z,38
2022-09-03T14:48:24.560Z,36
2022-09-03T14:53:25.231Z,36
2022-09-03T14:58:25.460Z,37
2022-09-03T15:03:25.587Z,37
2022-09-03T15:08:25.262Z,37
2022-09-03T15:13:26.763Z,37
2022-09-03T15:18:25.239Z,38
2022-09-03T15:23:25.742Z,38
2022-09-03T15:28:25.295Z,37
2022-09-03T15:33:25.515Z,37
2022-09-03T15:38:25.165Z,37
2022-09-03T15:43:25.047Z,37
2022-09-03T15:48:24.679Z,38
2022-09-03T15:53:25.265Z,38
2022-09-03T15:58:24.995Z,38
2022-09-03T16:03:26.377Z,38
2022-09-03T16:08:25.505Z,38
2022-09-03T16:13:25.044Z,38
2022-09-03T16:18:25.680Z,38
2022-09-03T16:23:24.950Z,38
2022-09-03T16:28:25.266Z,39
2022-09-03T16:33:25.295Z,39
2022-09-03T16:38:24.923Z,39
2022-09-03T16:43:41.676Z,39
2022-09-03T16:48:24.848Z,40
2022-09-03T16:53:25.352Z,40
2022-09-03T16:58:25.489Z,40
2022-09-03T17:03:26.862Z,40
2022-09-03T17:08:25.252Z,41
2022-09-03T17:13:25.018Z,41
2022-09-03T17:18:25.309Z,41
2022-09-03T17:23:25.977Z,41
2022-09-03T17:28:25.597Z,42
2022-09-03T17:33:25.110Z,42
2022-09-03T17:38:25.335Z,43
2022-09-03T17:43:25.010Z,43
2022-09-03T17:48:25.130Z,43
2022-09-03T17:53:25.722Z,43
2022-09-03T17:58:24.800Z,44
2022-09-03T18:03:26.829Z,44
2022-09-03T18:08:25.144Z,45
2022-09-03T18:13:26.843Z,45
2022-09-03T18:18:24.913Z,45
2022-09-03T18:23:25.517Z,45
2022-09-03T18:28:26.363Z,46
2022-09-03T18:33:25.962Z,46
2022-09-03T18:38:25.267Z,47
2022-09-03T18:43:25.991Z,47
2022-09-03T18:48:25.526Z,48
2022-09-03T18:53:29.948Z,48
2022-09-03T18:58:24.986Z,48
2022-09-03T19:03:25.409Z,48
2022-09-03T19:08:25.627Z,49
2022-09-03T19:13:25.655Z,49
2022-09-03T19:18:24.939Z,50
2022-09-03T19:23:25.386Z,50
2022-09-03T19:28:24.861Z,51
2022-09-03T19:33:29.988Z,51
2022-09-03T19:38:25.194Z,51
2022-09-03T19:43:25.607Z,51
2022-09-03T19:48:27.898Z,51
2022-09-03T19:53:25.341Z,51
2022-09-03T19:58:44.257Z,51
2022-09-03T20:03:24.658Z,51
2022-09-03T20:08:29.798Z,52
2022-09-03T20:13:24.904Z,52
2022-09-03T20:18:25.289Z,52
2022-09-03T20:23:25.461Z,52
2022-09-03T20:28:25.982Z,53
2022-09-03T20:33:26.018Z,53
2022-09-03T20:38:25.458Z,54
2022-09-03T20:43:25.685Z,54
2022-09-03T20:48:25.178Z,55
2022-09-03T20:53:28.272Z,55
2022-09-03T20:58:25.360Z,55
2022-09-03T21:03:25.503Z,55
2022-09-03T21:08:25.142Z,55
2022-09-03T21:13:25.470Z,55
2022-09-03T21:18:25.009Z,57
2022-09-03T21:23:25.042Z,57
2022-09-03T21:28:25.874Z,59
2022-09-03T21:33:25.347Z,59
2022-09-03T21:38:26.265Z,61
2022-09-03T21:43:28.366Z,61
2022-09-03T21:48:25.924Z,63
2022-09-03T21:53:25.176Z,63
2022-09-03T21:58:25.574Z,65
2022-09-03T22:03:24.745Z,65
2022-09-03T22:08:25.045Z,67
2022-09-03T22:13:25.448Z,67
2022-09-03T22:18:29.695Z,68
2022-09-03T22:23:25.043Z,68
2022-09-03T22:28:25.310Z,69
2022-09-03T22:33:25.556Z,69
2022-09-03T22:38:25.920Z,70
2022-09-03T22:43:25.228Z,70
2022-09-03T22:48:25.129Z,71
2022-09-03T22:53:25.741Z,71
2022-09-03T22:58:28.954Z,71
2022-09-03T23:03:24.934Z,71
2022-09-03T23:08:25.284Z,72
2022-09-03T23:13:25.636Z,72
2022-09-03T23:18:25.058Z,72
2022-09-03T23:23:25.167Z,72
2022-09-03T23:28:25.724Z,73
2022-09-03T23:33:24.875Z,73
2022-09-03T23:38:25.755Z,73
2022-09-03T23:43:24.761Z,73
2022-09-03T23:48:25.215Z,73
2022-09-03T23:53:25.524Z,73
2022-09-03T23:58:25.812Z,74
